createdAt,value
2018-08-28T00:00:49.373Z,74.80
2018-08-28T00:03:17.918Z,74.90
2018-08-28T00:05:46.428Z,75.10
2018-08-28T00:08:14.936Z,75.50
2018-08-28T00:10:43.400Z,76.50
2018-08-28T00:13:12.089Z,76.20
2018-08-28T00:15:40.681Z,76.70
2018-08-28T00:18:09.225Z,77.40
2018-08-28T00:20:37.796Z,78.90
2018-08-28T00:23:06.458Z,79.40
2018-08-28T00:25:35.066Z,80.10
2018-08-28T00:28:03.648Z,81.40
2018-08-28T00:30:32.111Z,82.20
2018-08-28T00:33:00.681Z,83.00
2018-08-28T00:35:29.142Z,84.20
2018-08-28T00:37:57.655Z,85.10
2018-08-28T00:40:26.120Z,86.40
2018-08-28T00:42:54.833Z,87.40
2018-08-28T00:45:23.602Z,88.40
2018-08-28T00:47:52.134Z,89.10
2018-08-28T00:50:20.784Z,89.70
2018-08-28T00:52:49.327Z,90.10
2018-08-28T00:55:17.832Z,90.40
2018-08-28T00:57:46.369Z,90.60
2018-08-28T01:00:14.891Z,90.80
2018-08-28T01:02:43.348Z,91.00
2018-08-28T01:05:11.872Z,91.10
2018-08-28T01:07:40.969Z,91.30
2018-08-28T01:10:09.807Z,91.60
2018-08-28T01:12:38.320Z,91.70
2018-08-28T01:15:07.429Z,92.00
2018-08-28T01:17:35.885Z,92.30
2018-08-28T01:20:05.047Z,92.40
2018-08-28T01:22:33.568Z,92.60
2018-08-28T01:25:02.011Z,92.90
2018-08-28T01:27:30.496Z,93.10
2018-08-28T01:29:58.929Z,93.50
2018-08-28T01:32:27.394Z,93.80
2018-08-28T01:34:55.847Z,94.10
2018-08-28T01:37:24.413Z,94.30
2018-08-28T01:39:53.083Z,94.50
2018-08-28T01:42:23.883Z,94.60
2018-08-28T01:44:52.499Z,95.10
2018-08-28T01:47:21.498Z,95.10
2018-08-28T01:49:50.523Z,95.20
2018-08-28T01:52:19.858Z,95.40
2018-08-28T01:54:48.367Z,95.60
2018-08-28T01:57:16.854Z,95.90
2018-08-28T01:59:45.664Z,96.10
2018-08-28T02:02:14.146Z,96.40
2018-08-28T02:04:42.749Z,96.50
2018-08-28T02:07:11.197Z,96.50
2018-08-28T02:09:39.737Z,96.70
2018-08-28T02:12:08.419Z,96.80
2018-08-28T02:14:37.044Z,96.90
2018-08-28T02:17:05.539Z,97.20
2018-08-28T02:19:33.996Z,97.10
2018-08-28T02:22:02.489Z,97.20
2018-08-28T02:24:30.996Z,97.40
2018-08-28T02:26:59.481Z,97.90
2018-08-28T02:29:28.001Z,98.00
2018-08-28T02:31:56.463Z,98.30
2018-08-28T02:34:25.133Z,98.30
2018-08-28T02:36:53.604Z,98.30
2018-08-28T02:39:22.069Z,98.90
2018-08-28T02:41:50.505Z,98.60
2018-08-28T02:44:19.019Z,98.60
2018-08-28T02:46:47.758Z,98.70
2018-08-28T02:49:17.035Z,98.80
2018-08-28T02:51:45.988Z,98.90
2018-08-28T02:54:14.572Z,99.00
2018-08-28T02:56:43.173Z,99.20
2018-08-28T02:59:12.257Z,99.40
2018-08-28T03:01:40.981Z,99.50
2018-08-28T03:04:09.957Z,99.70
2018-08-28T03:06:39.206Z,99.90
2018-08-28T03:09:08.051Z,99.90
2018-08-28T03:11:36.951Z,99.90
2018-08-28T03:14:05.583Z,99.90
2018-08-28T03:16:34.324Z,99.90
2018-08-28T03:19:03.479Z,99.90
2018-08-28T03:21:32.367Z,99.90
2018-08-28T03:24:01.244Z,99.90
2018-08-28T03:26:30.081Z,99.90
2018-08-28T03:28:58.788Z,99.90
2018-08-28T03:31:27.751Z,99.90
2018-08-28T03:33:56.748Z,99.90
2018-08-28T03:36:25.753Z,99.90
2018-08-28T03:38:54.499Z,99.90
2018-08-28T03:41:23.256Z,99.90
2018-08-28T03:43:52.112Z,99.90
2018-08-28T03:46:20.905Z,99.90
2018-08-28T03:48:49.479Z,99.90
2018-08-28T03:51:18.276Z,99.90
2018-08-28T03:53:46.805Z,99.90
2018-08-28T03:56:15.396Z,99.90
2018-08-28T03:58:44.317Z,99.90
2018-08-28T04:01:12.821Z,99.90
2018-08-28T04:03:41.616Z,99.90
2018-08-28T04:06:10.232Z,99.90
2018-08-28T04:08:38.915Z,99.90
2018-08-28T04:11:07.555Z,99.90
2018-08-28T04:13:35.982Z,99.90
2018-08-28T04:16:04.528Z,99.90
2018-08-28T04:18:33.430Z,99.90
2018-08-28T04:21:02.546Z,99.90
2018-08-28T04:23:31.265Z,99.90
2018-08-28T04:25:59.741Z,99.90
2018-08-28T04:28:28.410Z,99.90
2018-08-28T04:30:57.285Z,99.90
2018-08-28T04:33:25.604Z,99.90
2018-08-28T04:35:54.073Z,99.90
2018-08-28T04:38:22.840Z,99.90
2018-08-28T04:40:51.309Z,99.90
2018-08-28T04:43:19.795Z,99.90
2018-08-28T04:45:48.321Z,99.90
2018-08-28T04:48:17.036Z,99.90
2018-08-28T04:50:45.812Z,99.90
2018-08-28T04:53:14.627Z,99.90
2018-08-28T04:55:43.340Z,99.90
2018-08-28T04:58:11.763Z,99.90
2018-08-28T05:00:40.797Z,99.90
2018-08-28T05:03:09.188Z,99.90
2018-08-28T05:05:38.024Z,99.90
2018-08-28T05:08:06.684Z,99.90
2018-08-28T05:10:35.184Z,99.90
2018-08-28T05:13:03.669Z,99.90
2018-08-28T05:15:32.335Z,99.90
2018-08-28T05:18:01.309Z,99.90
2018-08-28T05:20:29.999Z,99.90
2018-08-28T05:22:58.632Z,99.90
2018-08-28T05:25:27.493Z,99.90
2018-08-28T05:27:56.267Z,99.90
2018-08-28T05:30:25.261Z,99.90
2018-08-28T05:32:53.921Z,99.90
2018-08-28T05:35:22.599Z,99.90
2018-08-28T05:37:51.484Z,99.90
2018-08-28T05:40:20.238Z,99.90
2018-08-28T05:42:49.076Z,99.90
2018-08-28T05:45:18.285Z,99.90
2018-08-28T05:47:47.037Z,99.90
2018-08-28T05:50:15.936Z,99.90
2018-08-28T05:52:45.173Z,99.90
2018-08-28T05:55:16.803Z,99.90
2018-08-28T05:57:45.843Z,99.90
2018-08-28T06:00:14.754Z,99.90
2018-08-28T06:02:43.384Z,99.90
2018-08-28T06:05:12.283Z,99.90
2018-08-28T06:07:40.818Z,99.70
2018-08-28T06:10:09.673Z,99.70
2018-08-28T06:12:38.266Z,98.50
2018-08-28T06:15:07.451Z,95.90
2018-08-28T06:17:36.063Z,93.40
2018-08-28T06:20:05.100Z,89.50
2018-08-28T06:22:33.933Z,81.40
2018-08-28T06:25:02.709Z,75.30
2018-08-28T06:27:31.304Z,70.30
2018-08-28T06:29:59.973Z,64.50
2018-08-28T06:32:28.599Z,60.10
2018-08-28T06:34:57.254Z,57.30
2018-08-28T06:37:25.885Z,55.40
2018-08-28T06:39:54.328Z,53.10
2018-08-28T06:42:22.925Z,51.60
2018-08-28T06:44:51.685Z,51.00
2018-08-28T06:47:20.860Z,50.40
2018-08-28T06:49:49.509Z,50.20
2018-08-28T06:52:18.421Z,49.30
2018-08-28T06:54:47.185Z,49.00
2018-08-28T06:57:15.920Z,48.20
2018-08-28T06:59:45.283Z,47.80
2018-08-28T07:02:14.751Z,47.40
2018-08-28T07:04:43.851Z,45.90
2018-08-28T07:07:12.844Z,45.10
2018-08-28T07:09:42.070Z,44.20
2018-08-28T07:12:11.233Z,43.30
2018-08-28T07:14:40.105Z,42.90
2018-08-28T07:17:08.962Z,42.10
2018-08-28T07:19:37.965Z,41.60
2018-08-28T07:22:07.309Z,41.70
2018-08-28T07:24:36.419Z,40.20
2018-08-28T07:27:07.217Z,39.40
2018-08-28T07:29:37.153Z,38.80
2018-08-28T07:32:06.338Z,38.10
2018-08-28T07:34:34.975Z,36.90
2018-08-28T07:37:03.493Z,36.70
2018-08-28T07:39:32.158Z,36.40
2018-08-28T07:42:00.636Z,36.10
2018-08-28T07:44:29.936Z,36.20
2018-08-28T07:46:58.861Z,36.00
2018-08-28T07:49:27.296Z,34.70
2018-08-28T07:51:55.829Z,34.20
2018-08-28T07:54:24.498Z,33.40
2018-08-28T07:56:53.088Z,33.30
2018-08-28T07:59:21.539Z,32.90
2018-08-28T08:01:50.033Z,32.40
2018-08-28T08:04:18.610Z,32.20
2018-08-28T08:06:47.057Z,31.20
2018-08-28T08:09:15.565Z,30.80
2018-08-28T08:11:44.017Z,30.90
2018-08-28T08:14:12.538Z,30.60
2018-08-28T08:16:41.207Z,30.40
2018-08-28T08:19:09.696Z,30.30
2018-08-28T08:21:38.174Z,30.00
2018-08-28T08:24:06.892Z,29.70
2018-08-28T08:26:35.410Z,30.10
2018-08-28T08:29:03.865Z,30.20
2018-08-28T08:31:32.295Z,30.10
2018-08-28T08:34:00.745Z,29.90
2018-08-28T08:36:29.178Z,29.80
2018-08-28T08:38:57.647Z,29.20
2018-08-28T08:41:26.111Z,29.00
2018-08-28T08:43:54.565Z,28.30
2018-08-28T08:46:23.077Z,27.70
2018-08-28T08:48:51.537Z,27.20
2018-08-28T08:51:20.067Z,27.00
2018-08-28T08:53:48.837Z,27.40
2018-08-28T08:56:17.325Z,27.80
2018-08-28T08:58:45.937Z,27.80
2018-08-28T09:01:14.422Z,28.00
2018-08-28T09:03:42.943Z,28.30
2018-08-28T09:06:11.548Z,28.90
2018-08-28T09:08:40.295Z,29.30
2018-08-28T09:11:09.402Z,29.40
2018-08-28T09:13:37.836Z,29.20
2018-08-28T09:16:06.334Z,28.40
2018-08-28T09:18:34.830Z,27.80
2018-08-28T09:21:03.273Z,28.00
2018-08-28T09:23:31.786Z,28.80
2018-08-28T09:26:00.297Z,29.60
2018-08-28T09:28:28.788Z,30.90
2018-08-28T09:30:57.310Z,30.00
2018-08-28T09:33:25.873Z,29.50
2018-08-28T09:35:54.316Z,30.00
2018-08-28T09:38:22.861Z,29.70
2018-08-28T09:40:51.312Z,28.90
2018-08-28T09:43:19.966Z,28.10
2018-08-28T09:45:48.674Z,27.50
2018-08-28T09:48:19.037Z,27.00
2018-08-28T09:50:47.607Z,27.00
2018-08-28T09:53:16.004Z,27.10
2018-08-28T09:55:44.483Z,27.50
2018-08-28T09:58:12.944Z,28.10
2018-08-28T10:00:46.900Z,27.90
2018-08-28T10:03:15.473Z,28.10
2018-08-28T10:05:43.930Z,28.80
2018-08-28T10:08:12.392Z,29.10
2018-08-28T10:10:40.970Z,28.40
2018-08-28T10:13:09.447Z,27.20
2018-08-28T10:15:37.930Z,26.50
2018-08-28T10:18:06.818Z,27.20
2018-08-28T10:20:35.841Z,26.80
2018-08-28T10:23:04.593Z,27.00
2018-08-28T10:25:33.291Z,27.10
2018-08-28T10:28:02.514Z,27.50
2018-08-28T10:30:37.815Z,27.80
2018-08-28T10:33:06.849Z,28.40
2018-08-28T10:35:35.597Z,29.30
2018-08-28T10:38:04.440Z,29.30
2018-08-28T10:40:33.389Z,29.00
2018-08-28T10:43:02.476Z,29.00
2018-08-28T10:45:31.002Z,29.20
2018-08-28T10:47:59.505Z,29.70
2018-08-28T10:50:27.973Z,29.20
2018-08-28T10:52:56.538Z,29.70
2018-08-28T10:55:24.930Z,30.80
2018-08-28T10:57:53.432Z,31.70
2018-08-28T11:00:22.074Z,32.50
2018-08-28T11:02:50.537Z,33.00
2018-08-28T11:05:19.000Z,33.40
2018-08-28T11:07:47.597Z,33.60
2018-08-28T11:10:16.368Z,34.00
2018-08-28T11:12:44.909Z,33.90
2018-08-28T11:15:13.421Z,33.40
2018-08-28T11:17:42.017Z,32.30
2018-08-28T11:20:10.923Z,32.20
2018-08-28T11:22:39.664Z,32.60
2018-08-28T11:25:08.586Z,33.30
2018-08-28T11:27:37.159Z,33.50
2018-08-28T11:30:05.725Z,32.90
2018-08-28T11:32:34.241Z,34.00
2018-08-28T11:35:02.881Z,34.00
2018-08-28T11:37:31.571Z,34.50
2018-08-28T11:40:00.076Z,34.70
2018-08-28T11:42:28.671Z,34.50
2018-08-28T11:44:57.194Z,34.40
2018-08-28T11:47:25.986Z,34.50
2018-08-28T11:49:55.009Z,35.00
2018-08-28T11:52:23.498Z,35.10
2018-08-28T11:54:51.954Z,34.90
2018-08-28T11:57:20.446Z,34.80
2018-08-28T11:59:49.097Z,34.20
2018-08-28T12:02:17.631Z,34.10
2018-08-28T12:04:46.291Z,33.50
2018-08-28T12:07:14.908Z,34.40
2018-08-28T12:09:43.621Z,33.50
2018-08-28T12:12:12.190Z,33.80
2018-08-28T12:14:40.916Z,33.40
2018-08-28T12:17:09.656Z,33.40
2018-08-28T12:19:38.346Z,33.10
2018-08-28T12:22:06.852Z,33.50
2018-08-28T12:24:35.340Z,34.00
2018-08-28T12:27:03.824Z,34.00
2018-08-28T12:29:32.589Z,34.80
2018-08-28T12:32:01.065Z,34.80
2018-08-28T12:34:29.691Z,35.60
2018-08-28T12:36:58.300Z,35.60
2018-08-28T12:39:26.998Z,35.70
2018-08-28T12:41:55.649Z,35.90
2018-08-28T12:44:24.207Z,35.90
2018-08-28T12:46:52.752Z,35.80
2018-08-28T12:49:21.188Z,36.60
2018-08-28T12:51:49.618Z,36.90
2018-08-28T12:54:18.158Z,36.80
2018-08-28T12:56:46.657Z,36.90
2018-08-28T12:59:15.261Z,36.60
2018-08-28T13:01:43.787Z,37.10
2018-08-28T13:04:12.277Z,37.20
2018-08-28T13:06:40.734Z,38.00
2018-08-28T13:09:09.224Z,38.20
2018-08-28T13:11:37.657Z,38.70
2018-08-28T13:14:06.549Z,38.30
2018-08-28T13:16:35.356Z,38.70
2018-08-28T13:19:04.136Z,39.20
2018-08-28T13:21:32.815Z,39.30
2018-08-28T13:24:01.317Z,39.50
2018-08-28T13:26:30.365Z,39.60
2018-08-28T13:28:58.836Z,39.20
2018-08-28T13:31:27.310Z,38.80
2018-08-28T13:33:55.876Z,39.10
2018-08-28T13:36:24.380Z,38.90
2018-08-28T13:38:52.927Z,39.30
2018-08-28T13:41:21.412Z,39.20
2018-08-28T13:43:49.852Z,39.20
2018-08-28T13:46:18.405Z,38.80
2018-08-28T13:48:47.014Z,39.00
2018-08-28T13:51:16.208Z,38.80
2018-08-28T13:53:45.420Z,39.20
2018-08-28T13:56:13.715Z,39.40
2018-08-28T13:58:42.241Z,39.40
2018-08-28T14:01:10.715Z,39.20
2018-08-28T14:03:39.218Z,39.40
2018-08-28T14:06:07.723Z,39.30
2018-08-28T14:08:36.198Z,39.00
2018-08-28T14:11:07.601Z,38.70
2018-08-28T14:13:36.082Z,38.40
2018-08-28T14:16:04.838Z,38.30
2018-08-28T14:18:33.358Z,38.60
2018-08-28T14:21:01.849Z,38.90
2018-08-28T14:23:30.519Z,38.10
2018-08-28T14:25:59.025Z,38.10
2018-08-28T14:28:28.168Z,37.90
2018-08-28T14:30:56.925Z,38.10
2018-08-28T14:33:25.540Z,38.00
2018-08-28T14:35:54.071Z,37.30
2018-08-28T14:38:22.620Z,37.30
2018-08-28T14:40:51.139Z,37.40
2018-08-28T14:43:19.626Z,37.60
2018-08-28T14:45:48.058Z,37.80
2018-08-28T14:48:16.553Z,37.60
2018-08-28T14:50:45.032Z,37.20
2018-08-28T14:53:13.787Z,37.40
2018-08-28T14:55:42.273Z,37.90
2018-08-28T14:58:10.935Z,38.10
2018-08-28T15:00:40.246Z,38.30
2018-08-28T15:03:08.760Z,38.40
2018-08-28T15:05:37.269Z,38.40
2018-08-28T15:08:05.854Z,37.80
2018-08-28T15:10:34.385Z,37.60
2018-08-28T15:13:02.817Z,37.50
2018-08-28T15:15:31.316Z,37.70
2018-08-28T15:17:59.807Z,37.30
2018-08-28T15:20:28.438Z,38.20
2018-08-28T15:22:56.903Z,38.00
2018-08-28T15:25:25.710Z,38.40
2018-08-28T15:27:54.162Z,38.30
2018-08-28T15:30:22.647Z,37.90
2018-08-28T15:32:51.152Z,37.50
2018-08-28T15:35:19.662Z,37.50
2018-08-28T15:37:48.101Z,37.40
2018-08-28T15:40:16.627Z,37.50
2018-08-28T15:42:45.104Z,37.90
2018-08-28T15:45:13.592Z,38.20
2018-08-28T15:47:42.072Z,38.60
2018-08-28T15:50:11.345Z,38.70
2018-08-28T15:52:39.823Z,38.90
2018-08-28T15:55:08.498Z,39.10
2018-08-28T15:57:37.330Z,38.90
2018-08-28T16:00:07.140Z,38.50
2018-08-28T16:02:35.855Z,38.80
2018-08-28T16:05:04.337Z,39.00
2018-08-28T16:07:32.874Z,39.10
2018-08-28T16:10:01.637Z,39.30
2018-08-28T16:12:30.188Z,40.10
2018-08-28T16:14:58.745Z,39.30
2018-08-28T16:17:27.232Z,39.40
2018-08-28T16:19:55.753Z,39.40
2018-08-28T16:22:31.740Z,39.50
2018-08-28T16:25:00.184Z,39.80
2018-08-28T16:27:28.638Z,40.20
2018-08-28T16:29:57.130Z,40.20
2018-08-28T16:32:25.681Z,40.10
2018-08-28T16:34:54.219Z,40.20
2018-08-28T16:37:22.717Z,40.10
2018-08-28T16:39:51.299Z,40.10
2018-08-28T16:42:19.798Z,40.40
2018-08-28T16:44:48.334Z,40.40
2018-08-28T16:47:16.791Z,40.40
2018-08-28T16:49:45.313Z,40.20
2018-08-28T16:52:13.834Z,40.50
2018-08-28T16:54:42.339Z,40.80
2018-08-28T16:57:10.833Z,40.70
2018-08-28T16:59:39.362Z,40.60
2018-08-28T17:02:07.861Z,40.60
2018-08-28T17:04:36.342Z,40.50
2018-08-28T17:07:05.063Z,40.50
2018-08-28T17:09:33.545Z,40.50
2018-08-28T17:12:02.092Z,40.60
2018-08-28T17:14:30.739Z,40.90
2018-08-28T17:16:59.229Z,40.50
2018-08-28T17:19:27.874Z,40.80
2018-08-28T17:21:56.423Z,41.10
2018-08-28T17:24:24.985Z,40.90
2018-08-28T17:26:53.488Z,41.20
2018-08-28T17:29:22.019Z,41.30
2018-08-28T17:31:50.958Z,41.60
2018-08-28T17:34:19.641Z,41.40
2018-08-28T17:36:48.238Z,41.60
2018-08-28T17:39:16.797Z,41.90
2018-08-28T17:41:45.239Z,42.10
2018-08-28T17:44:13.929Z,42.20
2018-08-28T17:46:42.442Z,42.60
2018-08-28T17:49:10.949Z,42.90
2018-08-28T17:51:39.482Z,43.00
2018-08-28T17:54:08.101Z,43.10
2018-08-28T17:56:36.781Z,43.30
2018-08-28T17:59:05.265Z,43.50
2018-08-28T18:01:33.846Z,43.70
2018-08-28T18:04:02.300Z,43.90
2018-08-28T18:06:30.814Z,44.10
2018-08-28T18:08:59.304Z,44.60
2018-08-28T18:11:27.951Z,45.00
2018-08-28T18:13:56.427Z,45.40
2018-08-28T18:16:25.023Z,45.70
2018-08-28T18:18:53.465Z,46.50
2018-08-28T18:21:21.950Z,46.20
2018-08-28T18:23:50.585Z,46.60
2018-08-28T18:26:19.109Z,46.70
2018-08-28T18:28:48.250Z,47.10
2018-08-28T18:31:16.727Z,47.40
2018-08-28T18:33:45.255Z,47.70
2018-08-28T18:36:13.836Z,47.80
2018-08-28T18:38:43.315Z,48.10
2018-08-28T18:41:11.932Z,48.40
2018-08-28T18:43:40.345Z,48.80
2018-08-28T18:46:08.915Z,49.40
2018-08-28T18:48:37.480Z,50.00
2018-08-28T18:51:06.102Z,50.40
2018-08-28T18:53:34.923Z,50.90
2018-08-28T18:56:03.471Z,51.20
2018-08-28T18:58:32.221Z,51.50
2018-08-28T19:01:00.727Z,52.10
2018-08-28T19:03:29.289Z,52.40
2018-08-28T19:05:57.809Z,52.90
2018-08-28T19:08:26.420Z,53.20
2018-08-28T19:10:55.025Z,54.20
2018-08-28T19:13:23.512Z,54.10
2018-08-28T19:15:52.345Z,54.30
2018-08-28T19:18:20.922Z,54.50
2018-08-28T19:20:49.499Z,54.90
2018-08-28T19:23:18.028Z,55.30
2018-08-28T19:25:46.549Z,55.80
2018-08-28T19:28:15.026Z,56.20
2018-08-28T19:30:43.531Z,56.60
2018-08-28T19:33:13.312Z,57.20
2018-08-28T19:35:41.758Z,58.00
2018-08-28T19:38:10.265Z,58.10
2018-08-28T19:40:38.781Z,58.20
2018-08-28T19:43:07.300Z,58.40
2018-08-28T19:45:35.898Z,59.10
2018-08-28T19:48:04.627Z,59.10
2018-08-28T19:50:33.169Z,60.00
2018-08-28T19:53:01.653Z,59.80
2018-08-28T19:55:30.278Z,59.80
2018-08-28T19:57:58.817Z,60.10
2018-08-28T20:00:27.682Z,60.40
2018-08-28T20:02:56.197Z,61.60
2018-08-28T20:05:24.705Z,61.50
2018-08-28T20:07:53.260Z,61.80
2018-08-28T20:10:21.843Z,61.80
2018-08-28T20:12:50.341Z,62.40
2018-08-28T20:15:18.916Z,62.50
2018-08-28T20:17:47.388Z,63.30
2018-08-28T20:20:15.930Z,63.10
2018-08-28T20:22:44.464Z,64.00
2018-08-28T20:25:12.944Z,64.30
2018-08-28T20:27:41.605Z,64.50
2018-08-28T20:30:10.426Z,65.50
2018-08-28T20:32:38.929Z,66.80
2018-08-28T20:35:07.830Z,67.80
2018-08-28T20:37:36.527Z,68.30
2018-08-28T20:40:05.160Z,68.90
2018-08-28T20:42:33.641Z,69.10
2018-08-28T20:45:02.076Z,69.80
2018-08-28T20:47:30.643Z,70.10
2018-08-28T20:49:59.131Z,70.10
2018-08-28T20:52:27.889Z,71.20
2018-08-28T20:54:56.498Z,71.70
2018-08-28T20:57:25.004Z,72.20
2018-08-28T20:59:53.493Z,72.50
2018-08-28T21:02:22.011Z,73.00
2018-08-28T21:04:50.569Z,73.30
2018-08-28T21:07:19.335Z,74.50
2018-08-28T21:09:47.823Z,74.50
2018-08-28T21:12:16.305Z,74.50
2018-08-28T21:14:44.916Z,74.90
2018-08-28T21:17:13.410Z,75.60
2018-08-28T21:19:41.865Z,75.60
2018-08-28T21:22:10.488Z,76.50
2018-08-28T21:24:39.003Z,76.50
2018-08-28T21:27:07.478Z,77.20
2018-08-28T21:29:35.968Z,78.20
2018-08-28T21:32:04.577Z,78.40
2018-08-28T21:34:33.063Z,78.30
2018-08-28T21:37:01.532Z,78.70
2018-08-28T21:39:30.104Z,79.50
2018-08-28T21:41:58.986Z,79.10
2018-08-28T21:44:27.475Z,79.20
2018-08-28T21:46:56.202Z,79.70
2018-08-28T21:49:24.744Z,79.80
2018-08-28T21:51:53.249Z,80.00
2018-08-28T21:54:21.707Z,80.00
2018-08-28T21:56:50.235Z,80.10
2018-08-28T21:59:18.692Z,80.40
2018-08-28T22:01:47.380Z,80.40
2018-08-28T22:04:15.893Z,80.50
2018-08-28T22:06:49.818Z,81.40
2018-08-28T22:09:18.252Z,81.20
2018-08-28T22:11:46.948Z,81.20
2018-08-28T22:14:15.456Z,81.60
2018-08-28T22:16:43.934Z,81.70
2018-08-28T22:19:12.503Z,82.00
2018-08-28T22:21:40.938Z,82.30
2018-08-28T22:24:09.490Z,82.90
2018-08-28T22:26:37.982Z,82.40
2018-08-28T22:29:06.409Z,82.70
2018-08-28T22:31:35.326Z,83.20
2018-08-28T22:34:03.899Z,83.10
2018-08-28T22:36:32.533Z,83.20
2018-08-28T22:39:01.089Z,83.30
2018-08-28T22:41:29.644Z,83.60
2018-08-28T22:43:58.128Z,83.60
2018-08-28T22:46:26.809Z,83.20
2018-08-28T22:48:55.264Z,82.80
2018-08-28T22:51:23.731Z,83.00
2018-08-28T22:53:52.293Z,83.50
2018-08-28T22:56:20.767Z,83.50
2018-08-28T22:58:49.306Z,84.00
2018-08-28T23:01:17.746Z,84.20
2018-08-28T23:03:46.207Z,84.90
2018-08-28T23:06:14.680Z,84.90
2018-08-28T23:08:43.157Z,84.80
2018-08-28T23:11:11.603Z,84.60
2018-08-28T23:13:40.121Z,85.10
2018-08-28T23:16:08.575Z,84.90
2018-08-28T23:18:37.010Z,85.30
2018-08-28T23:21:05.542Z,85.60
2018-08-28T23:23:33.993Z,85.50
2018-08-28T23:26:02.423Z,85.10
2018-08-28T23:28:31.211Z,84.60
2018-08-28T23:30:59.923Z,83.90
2018-08-28T23:33:28.599Z,83.60
2018-08-28T23:35:57.103Z,83.50
2018-08-28T23:38:25.536Z,83.80
2018-08-28T23:40:54.364Z,83.50
2018-08-28T23:43:22.863Z,84.80
2018-08-28T23:45:51.365Z,84.30
2018-08-28T23:48:19.846Z,84.30
2018-08-28T23:50:48.274Z,85.10
2018-08-28T23:53:16.761Z,85.10
2018-08-28T23:55:45.182Z,85.30
2018-08-28T23:58:13.720Z,85.60
